Aviation Digital Data Service (ADDS)

Output produced by METARs form (1116 UTC 24 May 2022)
found at http://www.aviationweather.gov/metar/data/
 
METAR text: EHKD 241107Z AUTO 26018KT 220V290 9999 FEW012 SCT015 BKN019 14/10 Q1003 WHT TEMPO 4000 SHRA SCT007 SCT014CB BKN018
Conditions at: EHKD (DE KOOY (NAVY) , NL) observed 1107 UTC 24 May 2022
Temperature: 14.0°C (57°F)
Dewpoint: 10.0°C (50°F) [RH = 77%]
Pressure (altimeter): 29.62 inches Hg (1003.0 mb)
Winds: from the W (260 degrees) at 21 MPH (18 knots; 9.3 m/s)
Visibility: 6 or more miles (10+ km)
Ceiling: 1900 feet AGL
Clouds: few clouds at 1200 feet AGL
scattered clouds at 1500 feet AGL
broken clouds at 1900 feet AGL
Weather: no significant weather observed at this time

METAR text: EHKD 241103Z AUTO 26019KT 230V290 9999 FEW012 SCT015 BKN035 14/10 Q1003 WHT TEMPO 4000 SHRA SCT007 SCT014CB BKN018
Conditions at: EHKD (DE KOOY (NAVY) , NL) observed 1103 UTC 24 May 2022
Temperature: 14.0°C (57°F)
Dewpoint: 10.0°C (50°F) [RH = 77%]
Pressure (altimeter): 29.62 inches Hg (1003.0 mb)
Winds: from the W (260 degrees) at 22 MPH (19 knots; 9.8 m/s)
Visibility: 6 or more miles (10+ km)
Ceiling: 3500 feet AGL
Clouds: few clouds at 1200 feet AGL
scattered clouds at 1500 feet AGL
broken clouds at 3500 feet AGL
Weather: no significant weather observed at this time

METAR text: EHKD 241058Z AUTO 25019KT 9999 FEW012 SCT016 BKN026 14/10 Q1003 WHT TEMPO 4000 SHRA SCT007 SCT014CB BKN018
Conditions at: EHKD (DE KOOY (NAVY) , NL) observed 1058 UTC 24 May 2022
Temperature: 14.0°C (57°F)
Dewpoint: 10.0°C (50°F) [RH = 77%]
Pressure (altimeter): 29.62 inches Hg (1003.0 mb)
Winds: from the WSW (250 degrees) at 22 MPH (19 knots; 9.8 m/s)
Visibility: 6 or more miles (10+ km)
Ceiling: 2600 feet AGL
Clouds: few clouds at 1200 feet AGL
scattered clouds at 1600 feet AGL
broken clouds at 2600 feet AGL
Weather: no significant weather observed at this time

METAR text: EHKD 241055Z AUTO 25019KT 210V280 9999 SCT011 BKN014 BKN017 14/10 Q1003 GRN TEMPO 4000 SHRA SCT007 SCT014CB BKN018
Conditions at: EHKD (DE KOOY (NAVY) , NL) observed 1055 UTC 24 May 2022
Temperature: 14.0°C (57°F)
Dewpoint: 10.0°C (50°F) [RH = 77%]
Pressure (altimeter): 29.62 inches Hg (1003.0 mb)
Winds: from the WSW (250 degrees) at 22 MPH (19 knots; 9.8 m/s)
Visibility: 6 or more miles (10+ km)
Ceiling: 1400 feet AGL
Clouds: scattered clouds at 1100 feet AGL
broken clouds at 1400 feet AGL
broken clouds at 1700 feet AGL
Weather: no significant weather observed at this time

METAR text: EHKD 241047Z AUTO 25020KT 210V290 9999 FEW011 SCT013 BKN019 14/10 Q1003 GRN TEMPO 4000 SHRA SCT007 SCT014CB BKN018
Conditions at: EHKD (DE KOOY (NAVY) , NL) observed 1047 UTC 24 May 2022
Temperature: 14.0°C (57°F)
Dewpoint: 10.0°C (50°F) [RH = 77%]
Pressure (altimeter): 29.62 inches Hg (1003.0 mb)
Winds: from the WSW (250 degrees) at 23 MPH (20 knots; 10.3 m/s)
Visibility: 6 or more miles (10+ km)
Ceiling: 1900 feet AGL
Clouds: few clouds at 1100 feet AGL
scattered clouds at 1300 feet AGL
broken clouds at 1900 feet AGL
Weather: no significant weather observed at this time

METAR text: EHKD 241042Z AUTO 25021KT 9999 FEW011 SCT016 BKN024 14/11 Q1003 WHT TEMPO 4000 SHRA SCT007 SCT014CB BKN018
Conditions at: EHKD (DE KOOY (NAVY) , NL) observed 1042 UTC 24 May 2022
Temperature: 14.0°C (57°F)
Dewpoint: 11.0°C (52°F) [RH = 82%]
Pressure (altimeter): 29.62 inches Hg (1003.0 mb)
Winds: from the WSW (250 degrees) at 24 MPH (21 knots; 10.8 m/s)
Visibility: 6 or more miles (10+ km)
Ceiling: 2400 feet AGL
Clouds: few clouds at 1100 feet AGL
scattered clouds at 1600 feet AGL
broken clouds at 2400 feet AGL
Weather: no significant weather observed at this time

METAR text: EHKD 241031Z AUTO 25018KT 220V290 9999 FEW011 BKN013 BKN018 13/10 Q1003 GRN TEMPO 4000 SHRA SCT007 SCT014CB BKN018
Conditions at: EHKD (DE KOOY (NAVY) , NL) observed 1031 UTC 24 May 2022
Temperature: 13.0°C (55°F)
Dewpoint: 10.0°C (50°F) [RH = 82%]
Pressure (altimeter): 29.62 inches Hg (1003.0 mb)
Winds: from the WSW (250 degrees) at 21 MPH (18 knots; 9.3 m/s)
Visibility: 6 or more miles (10+ km)
Ceiling: 1300 feet AGL
Clouds: few clouds at 1100 feet AGL
broken clouds at 1300 feet AGL
broken clouds at 1800 feet AGL
Weather: no significant weather observed at this time

METAR text: EHKD 241027Z AUTO 25019KT 220V290 9999 FEW011 SCT014 BKN016 13/10 Q1003 GRN TEMPO 4000 SHRA SCT007 SCT014CB BKN018
Conditions at: EHKD (DE KOOY (NAVY) , NL) observed 1027 UTC 24 May 2022
Temperature: 13.0°C (55°F)
Dewpoint: 10.0°C (50°F) [RH = 82%]
Pressure (altimeter): 29.62 inches Hg (1003.0 mb)
Winds: from the WSW (250 degrees) at 22 MPH (19 knots; 9.8 m/s)
Visibility: 6 or more miles (10+ km)
Ceiling: 1600 feet AGL
Clouds: few clouds at 1100 feet AGL
scattered clouds at 1400 feet AGL
broken clouds at 1600 feet AGL
Weather: no significant weather observed at this time

METAR text: EHKD 241025Z AUTO 25019KT 220V290 9999 FEW011 SCT013 BKN015 14/10 Q1003 GRN TEMPO 4000 SHRA SCT007 SCT014CB BKN018
Conditions at: EHKD (DE KOOY (NAVY) , NL) observed 1025 UTC 24 May 2022
Temperature: 14.0°C (57°F)
Dewpoint: 10.0°C (50°F) [RH = 77%]
Pressure (altimeter): 29.62 inches Hg (1003.0 mb)
Winds: from the WSW (250 degrees) at 22 MPH (19 knots; 9.8 m/s)
Visibility: 6 or more miles (10+ km)
Ceiling: 1500 feet AGL
Clouds: few clouds at 1100 feet AGL
scattered clouds at 1300 feet AGL
broken clouds at 1500 feet AGL
Weather: no significant weather observed at this time

Forecast for: EHKD (DE KOOY (NAVY) , NL)
Text: TAF EHKD 240816Z 2409/2421 24015KT 9999 BKN013
Forecast period: 0900 to 2100 UTC 24 May 2022
Forecast type: FROM: standard forecast or significant change
Winds: from the WSW (240 degrees) at 17 MPH (15 knots; 7.7 m/s)
Visibility: 6 or more miles (10+ km)
Ceiling: 1300 feet AGL
Clouds: broken clouds at 1300 feet AGL
Weather: no significant weather forecast for this period
Text: BECMG 2409/2411 SCT015
Forecast period: 0900 to 1800 UTC 24 May 2022
Forecast type: BECOMING: Conditions expected to become as follows by 1100 UTC 24 May 2022
Winds: from the WSW (240 degrees) at 17 MPH (15 knots; 7.7 m/s)
Visibility: 6 or more miles (10+ km)
Ceiling: at least 12,000 feet AGL
Clouds: scattered clouds at 1500 feet AGL
Weather: no significant weather forecast for this period
Text: TEMPO 2409/2417 24017G27KT 4500 SHRA SCT010 SCT015CB
Forecast period: 0900 to 1700 UTC 24 May 2022
Forecast type: TEMPORARY: The following changes expected for less than half the time period
Winds: from the WSW (240 degrees) at 20 MPH (17 knots; 8.7 m/s)
gusting to 31 MPH (27 knots; 13.9 m/s)
Visibility: 2.80 miles (4.51 km)
Ceiling: at least 12,000 feet AGL
Clouds: scattered clouds at 1000 feet AGL
scattered clouds at 1500 feet AGL
Weather: SHRA  (rain showers)
Text: PROB30
Forecast period: 0900 to 1500 UTC 24 May 2022
Forecast type: TEMPORARY: The following changes expected for less than half the time period
Visibility: 1.86 miles (2.99 km)
Ceiling: at least 12,000 feet AGL
Clouds: scattered clouds at 800 feet AGL
scattered clouds at 1200 feet AGL
Weather: TSRA  (rain associated with thunderstorm(s))
Text: TEMPO 2409/2415 3000 TSRA SCT008 SCT012CB
Forecast period: 1800 to 2100 UTC 24 May 2022
Forecast type: BECOMING: Conditions expected to become as follows by 2100 UTC 24 May 2022
Winds: from the SW (230 degrees) at 10 MPH (9 knots; 4.6 m/s)
Visibility: 6 or more miles (10+ km)
Ceiling: at least 12,000 feet AGL
Clouds: scattered clouds at 1500 feet AGL
Weather: no significant weather forecast for this period